首页
METAR-TAF:

METAR-TAF

机场 :

贝娜齐尔·布托国际机场

伊斯兰堡, 巴基斯坦

纬度: 33-37N, 经度: 073-06E, 海拔: 507米

当前天气观测

该预报发布于32分钟前的14:59 UTC
风速4节,风向西南
温度 31°C
湿度 66%
气压 1003 hPa
能见度10公里或以上
少量云层高于5000英尺

METAR: OPRN 161459Z 23004KT 9999 FEW050 31/24 Q1003 NOSIG RMK A2963

时间: 20:31 (15:31 UTC)

预报

该预报发布于3小时和31分钟前的12:00 UTC
预报有效从16日的 12点(UTC)到 17日的 18点(UTC)
风速10节,风向东南
能見度: 7000
散云层高于4000英尺
短暂存在
从 16日的 20点(UTC)到 16日的 24点(UTC)
风速10节,风向东南,有时为20节阵风
能見度: 4000
多云层高于4000英尺
附近有雷暴

TAF: OPRN 161200Z 1612/1718 13010KT 7000 SCT040 TEMPO 1620/1624 13010G20KT 4000 VCTS FEW030TCU/CB BKN040

超过4000个机场的气象观测和天气预报(METAR&TAF报告)。

可查询的气象台以黄色和红色小点在地图上表示。

将鼠标移到小点上方,可查看气象台名称。

然后点击查看天气观测和预报。

如需切换地图:点击带黑十字的绿色按钮放大地图;点击带横线的绿色按钮缩小地图;或者点击绿色箭头查看邻近地区的地图。


METAR-TAF: